createdAt,value
2022-09-25T00:00:29.023Z,2.80
2022-09-25T00:03:19.722Z,3.28
2022-09-25T00:06:14.631Z,3.92
2022-09-25T00:09:07.862Z,4.28
2022-09-25T00:11:52.059Z,4.47
2022-09-25T00:14:40.742Z,4.82
2022-09-25T00:17:29.646Z,5.90
2022-09-25T00:20:18.712Z,6.68
2022-09-25T00:23:09.628Z,8.10
2022-09-25T00:25:57.291Z,13.68
2022-09-25T00:28:45.744Z,12.93
2022-09-25T00:31:28.963Z,14.98
2022-09-25T00:34:19.751Z,14.45
2022-09-25T00:37:14.710Z,14.80
2022-09-25T00:40:10.720Z,17.67
2022-09-25T00:42:59.631Z,18.42
2022-09-25T00:45:42.012Z,19.77
2022-09-25T00:48:30.727Z,20.35
2022-09-25T00:51:20.636Z,19.58
2022-09-25T00:54:12.777Z,21.30
2022-09-25T00:56:58.029Z,24.58
2022-09-25T00:59:51.792Z,23.25
2022-09-25T01:02:41.134Z,25.00
2022-09-25T01:05:42.702Z,25.83
2022-09-25T01:08:32.084Z,26.52
2022-09-25T01:11:20.627Z,25.92
2022-09-25T01:14:05.037Z,24.90
2022-09-25T01:17:10.714Z,25.65
2022-09-25T01:20:11.665Z,23.02
2022-09-25T01:23:03.784Z,23.23
2022-09-25T01:25:56.068Z,25.13
2022-09-25T01:28:51.634Z,24.23
2022-09-25T01:31:43.006Z,23.42
2022-09-25T01:34:49.627Z,20.73
2022-09-25T01:37:53.618Z,20.05
2022-09-25T01:40:49.829Z,17.08
2022-09-25T01:43:48.023Z,16.33
2022-09-25T01:46:41.739Z,15.82
2022-09-25T01:52:27.737Z,15.90
2022-09-25T01:55:48.993Z,16.23
2022-09-25T01:58:44.653Z,16.20
2022-09-25T02:01:37.062Z,17.85
2022-09-25T02:04:29.722Z,17.85
2022-09-25T02:07:24.632Z,20.43
2022-09-25T02:10:44.631Z,19.05
2022-09-25T02:13:30.280Z,20.77
2022-09-25T02:16:33.692Z,23.80
2022-09-25T02:19:40.718Z,23.02
2022-09-25T02:22:37.973Z,23.25
2022-09-25T02:25:30.645Z,23.73
2022-09-25T02:28:13.142Z,24.27
2022-09-25T02:31:03.839Z,22.73
2022-09-25T02:33:52.097Z,22.67
2022-09-25T02:36:33.702Z,25.15
2022-09-25T02:39:33.838Z,23.92
2022-09-25T02:42:44.864Z,25.05
2022-09-25T02:45:39.122Z,25.50
2022-09-25T02:48:36.709Z,27.17
2022-09-25T02:51:36.002Z,28.40
2022-09-25T02:54:40.589Z,32.97
2022-09-25T02:57:34.186Z,31.55
2022-09-25T03:00:22.708Z,29.38
2022-09-25T03:03:08.649Z,27.10
2022-09-25T03:05:59.767Z,20.60
2022-09-25T03:08:53.708Z,16.30
2022-09-25T03:11:42.570Z,16.00
2022-09-25T03:14:31.712Z,12.27
2022-09-25T03:17:17.140Z,11.00
2022-09-25T03:20:05.712Z,10.32
2022-09-25T03:22:48.207Z,9.43
2022-09-25T03:25:36.703Z,9.23
2022-09-25T03:28:18.969Z,9.82
2022-09-25T03:31:12.834Z,10.23
2022-09-25T03:33:54.912Z,9.40
2022-09-25T03:36:45.734Z,9.80
2022-09-25T03:39:34.013Z,8.32
2022-09-25T03:42:15.705Z,8.52
2022-09-25T03:44:57.938Z,7.72
2022-09-25T03:47:46.696Z,8.80
2022-09-25T03:50:28.914Z,9.20
2022-09-25T03:53:17.720Z,8.55
2022-09-25T03:55:59.905Z,7.53
2022-09-25T03:58:48.729Z,7.78
2022-09-25T04:01:31.301Z,7.15
2022-09-25T04:04:19.724Z,6.40
2022-09-25T04:07:01.937Z,6.55
2022-09-25T04:09:50.719Z,5.70
2022-09-25T04:12:39.977Z,2.97
2022-09-25T04:15:24.562Z,2.50
2022-09-25T04:18:14.701Z,2.63
2022-09-25T04:20:57.363Z,2.33
2022-09-25T04:23:47.718Z,3.30
2022-09-25T04:26:36.687Z,3.38
2022-09-25T04:29:25.815Z,3.42
2022-09-25T04:32:26.131Z,4.30
2022-09-25T04:35:14.715Z,3.25
2022-09-25T04:37:56.996Z,3.40
2022-09-25T04:40:45.735Z,3.95
2022-09-25T04:43:28.032Z,4.57
2022-09-25T04:46:21.893Z,3.67
2022-09-25T04:49:05.001Z,3.83
2022-09-25T04:51:53.704Z,3.60
2022-09-25T04:54:42.713Z,2.95
2022-09-25T04:57:57.252Z,2.88
2022-09-25T05:00:39.712Z,3.10
2022-09-25T05:03:22.133Z,2.90
2022-09-25T05:06:10.714Z,2.90
2022-09-25T05:08:55.077Z,3.03
2022-09-25T05:11:43.707Z,2.97
2022-09-25T05:14:26.104Z,2.65
2022-09-25T05:17:23.705Z,2.88
2022-09-25T05:20:06.152Z,3.53
2022-09-25T05:22:54.650Z,3.38
2022-09-25T05:25:37.026Z,2.90
2022-09-25T05:28:25.709Z,3.17
2022-09-25T05:31:10.046Z,2.65
2022-09-25T05:33:59.722Z,2.95
2022-09-25T05:36:41.997Z,2.53
2022-09-25T05:39:36.710Z,2.67
2022-09-25T05:42:25.080Z,3.08
2022-09-25T05:45:07.698Z,3.13
2022-09-25T05:47:50.140Z,3.03
2022-09-25T05:50:39.710Z,3.35
2022-09-25T05:53:28.636Z,3.30
2022-09-25T05:56:13.308Z,3.40
2022-09-25T05:59:02.743Z,3.83
2022-09-25T06:01:52.803Z,5.63
2022-09-25T06:04:48.726Z,7.15
2022-09-25T06:07:31.037Z,8.98
2022-09-25T06:10:20.670Z,7.50
2022-09-25T06:13:12.799Z,7.20
2022-09-25T06:15:55.169Z,8.25
2022-09-25T06:18:45.759Z,8.57
2022-09-25T06:21:35.268Z,7.72
2022-09-25T06:24:23.658Z,7.93
2022-09-25T06:27:06.736Z,7.88
2022-09-25T06:29:55.707Z,9.27
2022-09-25T06:32:39.272Z,8.65
2022-09-25T06:35:27.734Z,9.77
2022-09-25T06:38:17.626Z,10.93
2022-09-25T06:41:08.162Z,11.60
2022-09-25T06:43:50.834Z,11.70
2022-09-25T06:46:39.195Z,12.95
2022-09-25T06:49:21.694Z,10.32
2022-09-25T06:52:04.013Z,10.85
2022-09-25T06:54:52.707Z,11.45
2022-09-25T06:57:38.222Z,11.70
2022-09-25T07:00:27.665Z,12.25
2022-09-25T07:03:28.343Z,12.43
2022-09-25T07:06:19.819Z,12.98
2022-09-25T07:09:09.089Z,13.75
2022-09-25T07:11:51.766Z,14.73
2022-09-25T07:14:40.190Z,15.07
2022-09-25T07:17:22.886Z,14.63
2022-09-25T07:20:05.249Z,14.88
2022-09-25T07:22:54.773Z,15.10
2022-09-25T07:25:43.068Z,14.82
2022-09-25T07:28:27.824Z,14.93
2022-09-25T07:31:20.889Z,15.45
2022-09-25T07:34:16.789Z,16.10
2022-09-25T07:37:11.757Z,15.95
2022-09-25T07:40:00.077Z,15.23
2022-09-25T07:42:42.698Z,16.63
2022-09-25T07:45:31.072Z,16.10
2022-09-25T07:48:13.743Z,17.00
2022-09-25T07:51:03.264Z,16.50
2022-09-25T07:53:46.777Z,16.35
2022-09-25T07:56:39.371Z,16.70
2022-09-25T07:59:22.762Z,15.23
2022-09-25T08:02:11.121Z,16.13
2022-09-25T08:04:53.740Z,15.73
2022-09-25T08:07:42.747Z,16.92
2022-09-25T08:10:25.145Z,15.73
2022-09-25T08:13:13.777Z,16.73
2022-09-25T08:16:05.362Z,15.76
2022-09-25T08:18:55.756Z,15.93
2022-09-25T08:21:44.735Z,15.70
2022-09-25T08:24:33.049Z,10.68
2022-09-25T08:27:15.678Z,9.90
2022-09-25T08:32:46.753Z,9.70
2022-09-25T08:35:37.291Z,10.13
2022-09-25T08:38:25.672Z,10.80
2022-09-25T08:41:20.757Z,10.38
2022-09-25T08:44:24.054Z,9.63
2022-09-25T08:47:40.812Z,10.07
2022-09-25T08:50:25.511Z,10.00
2022-09-25T08:53:24.081Z,10.18
2022-09-25T08:56:20.957Z,10.30
2022-09-25T08:59:16.736Z,10.52
2022-09-25T09:02:10.663Z,10.48
2022-09-25T09:05:03.209Z,10.57
2022-09-25T09:07:54.867Z,10.70
2022-09-25T09:10:53.219Z,8.65
2022-09-25T09:13:55.846Z,9.50
2022-09-25T09:17:08.022Z,10.33
2022-09-25T09:20:01.734Z,10.55
2022-09-25T09:22:54.365Z,8.90
2022-09-25T09:25:59.587Z,8.75
2022-09-25T09:29:15.741Z,8.38
2022-09-25T09:32:41.716Z,9.63
2022-09-25T09:35:33.971Z,8.43
2022-09-25T09:38:50.762Z,9.68
2022-09-25T09:42:37.516Z,9.77
2022-09-25T09:45:35.731Z,9.60
2022-09-25T09:48:38.714Z,10.20
2022-09-25T09:51:35.334Z,8.80
2022-09-25T09:54:51.766Z,8.48
2022-09-25T09:57:45.699Z,8.30
2022-09-25T10:00:28.170Z,7.75
2022-09-25T10:03:26.764Z,7.65
2022-09-25T10:06:22.665Z,8.43
2022-09-25T10:09:05.677Z,7.90
2022-09-25T10:12:06.259Z,8.55
2022-09-25T10:14:53.695Z,7.97
2022-09-25T10:17:39.049Z,8.05
2022-09-25T10:20:36.707Z,9.02
2022-09-25T10:23:28.175Z,9.20
2022-09-25T10:26:10.810Z,9.38
2022-09-25T10:29:00.145Z,8.88
2022-09-25T10:31:45.695Z,8.90
2022-09-25T10:34:30.761Z,9.35
2022-09-25T10:37:33.585Z,9.40
2022-09-25T10:40:34.555Z,9.80
2022-09-25T10:43:24.697Z,11.35
2022-09-25T10:46:22.779Z,8.02
2022-09-25T10:49:56.545Z,7.47
2022-09-25T10:53:06.611Z,5.72
2022-09-25T10:56:08.758Z,4.82
2022-09-25T10:58:58.025Z,4.60
2022-09-25T11:01:50.704Z,4.85
2022-09-25T11:04:41.232Z,5.43
2022-09-25T11:07:32.602Z,4.53
2022-09-25T11:10:34.254Z,4.38
2022-09-25T11:13:28.697Z,4.10
2022-09-25T11:16:18.510Z,4.43
2022-09-25T11:19:19.849Z,3.88
2022-09-25T11:22:32.035Z,3.00
2022-09-25T11:25:32.703Z,3.08
2022-09-25T11:28:40.034Z,3.45
2022-09-25T11:31:29.701Z,3.40
2022-09-25T11:34:48.766Z,3.35
2022-09-25T11:38:02.469Z,3.58
2022-09-25T11:44:41.617Z,3.90
2022-09-25T11:47:38.688Z,3.63
2022-09-25T11:50:32.685Z,3.40
2022-09-25T11:53:18.447Z,3.83
2022-09-25T11:56:37.617Z,3.42
2022-09-25T12:00:03.693Z,3.63
2022-09-25T12:03:19.080Z,3.40
2022-09-25T12:06:24.641Z,3.33
2022-09-25T12:09:35.059Z,3.25
2022-09-25T12:12:33.440Z,3.22
2022-09-25T12:15:51.055Z,3.45
2022-09-25T12:19:12.741Z,3.40
2022-09-25T12:22:16.314Z,3.28
2022-09-25T12:25:43.748Z,3.70
2022-09-25T12:28:35.726Z,3.15
2022-09-25T12:31:30.059Z,3.70
2022-09-25T12:34:25.728Z,3.40
2022-09-25T12:37:46.791Z,3.53
2022-09-25T12:41:06.734Z,3.38
2022-09-25T12:44:09.554Z,4.05
2022-09-25T12:47:10.747Z,3.93
2022-09-25T12:50:04.151Z,3.70
2022-09-25T12:52:59.737Z,4.45
2022-09-25T12:55:54.180Z,3.92
2022-09-25T12:58:58.779Z,4.50
2022-09-25T13:01:47.717Z,3.92
2022-09-25T13:04:57.748Z,4.18
2022-09-25T13:08:14.715Z,4.43
2022-09-25T13:11:46.400Z,4.20
2022-09-25T13:14:50.668Z,4.88
2022-09-25T13:17:39.729Z,5.00
2022-09-25T13:20:45.685Z,5.22
2022-09-25T13:23:42.811Z,5.72
2022-09-25T13:26:35.743Z,6.18
2022-09-25T13:29:54.983Z,6.30
2022-09-25T13:32:49.701Z,6.85
2022-09-25T13:35:40.035Z,6.68
2022-09-25T13:38:46.734Z,6.50
2022-09-25T13:41:36.219Z,6.88
2022-09-25T13:44:49.630Z,6.40
2022-09-25T13:47:59.030Z,5.85
2022-09-25T13:50:59.803Z,5.72
2022-09-25T13:54:04.515Z,5.55
2022-09-25T13:56:56.723Z,5.30
2022-09-25T13:59:52.706Z,4.97
2022-09-25T14:02:50.750Z,4.60
2022-09-25T14:05:37.237Z,4.78
2022-09-25T14:08:27.330Z,4.53
2022-09-25T14:11:20.751Z,4.82
2022-09-25T14:14:06.747Z,5.05
2022-09-25T14:17:06.722Z,3.83
2022-09-25T14:19:53.324Z,3.70
2022-09-25T14:23:07.755Z,3.70
2022-09-25T14:26:09.063Z,3.40
2022-09-25T14:28:56.688Z,3.30
2022-09-25T14:32:54.476Z,3.38
2022-09-25T14:36:24.137Z,3.70
2022-09-25T14:39:26.737Z,3.33
2022-09-25T14:42:34.055Z,2.67
2022-09-25T14:45:46.735Z,3.83
2022-09-25T14:48:40.052Z,3.85
2022-09-25T14:51:54.731Z,3.80
2022-09-25T14:54:48.724Z,4.03
2022-09-25T14:57:44.063Z,3.65
2022-09-25T15:00:31.766Z,3.47
2022-09-25T15:03:24.077Z,4.05
2022-09-25T15:06:13.915Z,4.22
2022-09-25T15:09:05.170Z,3.70
2022-09-25T15:11:49.667Z,3.85
2022-09-25T15:14:38.047Z,4.18
2022-09-25T15:17:30.729Z,3.20
2022-09-25T15:20:24.483Z,4.20
2022-09-25T15:23:11.693Z,4.88
2022-09-25T15:26:04.091Z,5.20
2022-09-25T15:28:49.652Z,4.70
2022-09-25T15:31:38.650Z,5.43
2022-09-25T15:34:30.764Z,3.90
2022-09-25T15:37:30.480Z,4.00
2022-09-25T15:40:33.802Z,3.95
2022-09-25T15:43:23.751Z,3.70
2022-09-25T15:46:12.233Z,3.70
2022-09-25T15:49:05.694Z,3.75
2022-09-25T15:51:56.238Z,3.88
2022-09-25T15:54:52.752Z,3.63
2022-09-25T15:57:40.073Z,3.28
2022-09-25T16:00:52.623Z,3.28
2022-09-25T16:03:56.387Z,3.10
2022-09-25T16:06:50.690Z,3.63
2022-09-25T16:09:42.126Z,4.00
2022-09-25T16:12:53.766Z,3.85
2022-09-25T16:15:36.064Z,4.38
2022-09-25T16:19:03.696Z,4.03
2022-09-25T16:21:48.039Z,4.07
2022-09-25T16:24:38.051Z,4.18
2022-09-25T16:27:35.061Z,4.15
2022-09-25T16:30:31.743Z,3.88
2022-09-25T16:33:35.814Z,4.38
2022-09-25T16:42:27.361Z,5.47
2022-09-25T16:45:33.814Z,5.28
2022-09-25T16:48:36.196Z,5.25
2022-09-25T16:51:35.699Z,5.20
2022-09-25T16:54:32.028Z,5.05
2022-09-25T16:57:14.631Z,4.88
2022-09-25T17:00:04.235Z,4.97
2022-09-25T17:02:51.849Z,5.47
2022-09-25T17:05:41.286Z,5.30
2022-09-25T17:08:28.599Z,5.53
2022-09-25T17:11:21.640Z,5.60
2022-09-25T17:14:04.176Z,4.53
2022-09-25T17:16:53.070Z,4.43
2022-09-25T17:19:36.150Z,4.60
2022-09-25T17:25:15.213Z,4.60
2022-09-25T17:28:03.645Z,4.60
2022-09-25T17:30:54.129Z,4.43
2022-09-25T17:33:43.083Z,4.20
2022-09-25T17:36:25.947Z,4.35
2022-09-25T17:39:21.624Z,4.10
2022-09-25T17:42:10.664Z,4.38
2022-09-25T17:44:53.227Z,5.47
2022-09-25T17:47:41.692Z,4.78
2022-09-25T17:50:24.204Z,4.75
2022-09-25T17:53:23.707Z,4.68
2022-09-25T17:56:08.363Z,4.78
2022-09-25T17:58:58.737Z,4.60
2022-09-25T18:01:49.794Z,4.35
2022-09-25T18:04:38.734Z,4.50
2022-09-25T18:07:21.435Z,4.00
2022-09-25T18:10:10.686Z,4.35
2022-09-25T18:12:53.125Z,4.55
2022-09-25T18:15:45.780Z,4.15
2022-09-25T18:18:56.661Z,4.18
2022-09-25T18:21:57.114Z,4.22
2022-09-25T18:24:45.614Z,4.20
2022-09-25T18:27:45.649Z,4.60
2022-09-25T18:30:28.092Z,4.22
2022-09-25T18:33:16.670Z,3.95
2022-09-25T18:36:06.135Z,4.93
2022-09-25T18:38:47.705Z,4.05
2022-09-25T18:41:43.668Z,4.47
2022-09-25T18:44:32.677Z,3.67
2022-09-25T18:47:15.045Z,3.88
2022-09-25T18:50:03.672Z,4.50
2022-09-25T18:52:47.181Z,4.57
2022-09-25T18:55:35.623Z,4.15
2022-09-25T18:58:21.024Z,4.35
2022-09-25T19:01:10.923Z,4.15
2022-09-25T19:03:58.212Z,4.43
2022-09-25T19:06:46.680Z,4.65
2022-09-25T19:09:29.967Z,4.07
2022-09-25T19:12:22.622Z,3.72
2022-09-25T19:15:12.685Z,4.13
2022-09-25T19:18:00.956Z,3.92
2022-09-25T19:20:43.753Z,4.28
2022-09-25T19:23:34.694Z,4.72
2022-09-25T19:26:21.655Z,4.50
2022-09-25T19:29:10.724Z,4.50
2022-09-25T19:31:52.987Z,4.18
2022-09-25T19:34:41.753Z,4.28
2022-09-25T19:37:27.414Z,3.90
2022-09-25T19:40:41.767Z,3.75
2022-09-25T19:43:25.220Z,3.70
2022-09-25T19:46:14.689Z,3.90
2022-09-25T19:49:03.574Z,4.28
2022-09-25T19:51:46.196Z,3.63
2022-09-25T19:54:35.744Z,3.95
2022-09-25T19:57:17.944Z,3.75
2022-09-25T20:00:06.755Z,3.85
2022-09-25T20:02:54.462Z,3.63
2022-09-25T20:05:47.665Z,4.10
2022-09-25T20:08:36.559Z,3.20
2022-09-25T20:11:22.124Z,3.72
2022-09-25T20:14:10.659Z,4.45
2022-09-25T20:16:56.885Z,4.18
2022-09-25T20:19:45.673Z,3.53
2022-09-25T20:22:33.947Z,3.65
2022-09-25T20:25:16.665Z,4.30
2022-09-25T20:28:04.936Z,3.22
2022-09-25T20:30:47.701Z,3.70
2022-09-25T20:33:36.940Z,4.32
2022-09-25T20:36:21.936Z,3.38
2022-09-25T20:39:10.671Z,3.85
2022-09-25T20:42:05.657Z,4.07
2022-09-25T20:44:56.097Z,3.67
2022-09-25T20:47:46.065Z,4.00
2022-09-25T20:50:34.910Z,3.75
2022-09-25T20:53:17.661Z,4.20
2022-09-25T20:56:17.999Z,3.88
2022-09-25T20:59:01.740Z,3.97
2022-09-25T21:01:50.283Z,3.05
2022-09-25T21:04:32.659Z,3.83
2022-09-25T21:07:21.716Z,3.75
2022-09-25T21:10:04.671Z,3.60
2022-09-25T21:12:53.234Z,3.78
2022-09-25T21:15:36.639Z,4.45
2022-09-25T21:18:25.669Z,3.33
2022-09-25T21:21:12.952Z,3.88
2022-09-25T21:24:03.654Z,3.60
2022-09-25T21:26:46.271Z,3.97
2022-09-25T21:29:34.651Z,3.80
2022-09-25T21:32:16.933Z,3.72
2022-09-25T21:35:05.642Z,4.88
2022-09-25T21:37:48.367Z,4.47
2022-09-25T21:40:37.712Z,3.67
2022-09-25T21:43:19.963Z,4.65
2022-09-25T21:46:10.692Z,3.83
2022-09-25T21:48:59.946Z,5.70
2022-09-25T21:51:51.654Z,4.72
2022-09-25T21:54:40.633Z,4.32
2022-09-25T21:57:30.655Z,4.97
2022-09-25T22:00:14.526Z,4.13
2022-09-25T22:03:03.741Z,4.50
2022-09-25T22:05:52.647Z,4.13
2022-09-25T22:08:42.927Z,4.43
2022-09-25T22:11:25.653Z,4.10
2022-09-25T22:14:16.542Z,4.47
2022-09-25T22:17:00.258Z,4.93
2022-09-25T22:19:49.640Z,5.28
2022-09-25T22:22:31.938Z,4.55
2022-09-25T22:25:20.653Z,5.00
2022-09-25T22:28:09.628Z,5.22
2022-09-25T22:30:58.689Z,5.00
2022-09-25T22:33:42.126Z,5.20
2022-09-25T22:36:30.667Z,5.20
2022-09-25T22:39:20.639Z,5.03
2022-09-25T22:42:15.662Z,4.63
2022-09-25T22:45:03.930Z,4.60
2022-09-25T22:47:45.634Z,4.70
2022-09-25T22:50:35.649Z,4.75
2022-09-25T22:53:18.067Z,5.22
2022-09-25T22:56:20.653Z,4.82
2022-09-25T22:59:13.739Z,5.15
2022-09-25T23:02:02.941Z,5.40
2022-09-25T23:04:44.663Z,5.10
2022-09-25T23:07:26.834Z,5.15
2022-09-25T23:10:15.656Z,4.47
2022-09-25T23:13:03.904Z,5.65
2022-09-25T23:15:47.676Z,4.97
2022-09-25T23:18:39.674Z,4.95
2022-09-25T23:21:21.946Z,5.18
2022-09-25T23:24:16.646Z,4.97
2022-09-25T23:26:59.970Z,5.03
2022-09-25T23:29:48.708Z,5.43
2022-09-25T23:32:30.928Z,5.53
2022-09-25T23:35:19.722Z,5.60
2022-09-25T23:38:01.957Z,5.03
2022-09-25T23:40:50.727Z,4.97
2022-09-25T23:43:39.649Z,5.00
2022-09-25T23:46:30.709Z,5.47
2022-09-25T23:49:20.563Z,4.85
2022-09-25T23:52:09.624Z,5.00
2022-09-25T23:54:51.961Z,5.80
2022-09-25T23:57:44.673Z,5.25
